Time;durP1;ratioP1;P1;durP2;ratioP2;P2;SDS_P1;SDS_P2;PMS_P1;PMS_P2;Temp;Humidity;BMP_temperature;BMP_pressure;BME280_temperature;BME280_humidity;BME280_pressure;Samples;Min_cycle;Max_cycle;Signal;HPM_P1;HPM_P2
2023/07/26 00:00:21;;;;;;;3.30;1.73;;;16.20;99.90;;;;;;5090511;28;20345;-45
2023/07/26 00:02:46;;;;;;;6.13;1.90;;;16.20;99.90;;;;;;5091536;28;20263;-45
2023/07/26 00:05:12;;;;;;;2.37;1.30;;;16.10;99.90;;;;;;5090408;28;20199;-45
2023/07/26 00:07:37;;;;;;;4.17;1.80;;;16.00;99.90;;;;;;5091409;28;20179;-43
2023/07/26 00:10:03;;;;;;;6.30;1.40;;;16.10;99.90;;;;;;5092037;28;20168;-43
2023/07/26 00:12:29;;;;;;;5.33;1.57;;;16.00;99.90;;;;;;5093276;28;20208;-44
2023/07/26 00:14:55;;;;;;;3.27;1.67;;;16.00;99.90;;;;;;5091149;28;20184;-44
2023/07/26 00:17:20;;;;;;;5.13;1.50;;;15.90;99.90;;;;;;5092957;28;20195;-46
2023/07/26 00:19:46;;;;;;;5.90;2.00;;;15.90;99.90;;;;;;5091918;28;20267;-45
2023/07/26 00:22:12;;;;;;;6.90;1.63;;;15.90;99.90;;;;;;5092473;28;20235;-45
2023/07/26 00:24:38;;;;;;;2.87;1.50;;;15.90;99.90;;;;;;5092151;28;20236;-44
2023/07/26 00:27:03;;;;;;;2.53;1.30;;;15.90;99.90;;;;;;5092346;28;20444;-44
2023/07/26 00:29:29;;;;;;;4.83;2.23;;;15.80;99.90;;;;;;5095746;28;20433;-46
2023/07/26 00:31:54;;;;;;;7.03;1.90;;;15.80;99.90;;;;;;5096671;28;20203;-43
2023/07/26 00:34:20;;;;;;;4.83;1.43;;;15.80;99.90;;;;;;5114275;28;20258;-47
2023/07/26 00:36:46;;;;;;;4.37;1.57;;;15.70;99.90;;;;;;5095660;28;20217;-45
2023/07/26 00:39:11;;;;;;;3.50;1.73;;;15.60;99.90;;;;;;5095607;28;20175;-46
2023/07/26 00:41:37;;;;;;;2.70;1.23;;;15.60;99.90;;;;;;5095643;28;20175;-43
2023/07/26 00:44:03;;;;;;;3.53;1.30;;;15.50;99.90;;;;;;5094496;28;20566;-45
2023/07/26 00:46:29;;;;;;;4.80;1.60;;;15.50;99.90;;;;;;5093925;28;20183;-42
2023/07/26 00:48:55;;;;;;;4.60;1.67;;;15.60;99.90;;;;;;5093430;28;20521;-42
2023/07/26 00:51:21;;;;;;;5.93;1.77;;;15.60;99.90;;;;;;5093239;28;20456;-47
2023/07/26 00:53:47;;;;;;;3.27;1.40;;;15.60;99.90;;;;;;5094791;28;20163;-43
2023/07/26 00:56:13;;;;;;;2.87;1.17;;;15.60;99.90;;;;;;5094399;28;20239;-48
2023/07/26 00:58:40;;;;;;;3.50;1.37;;;15.60;99.90;;;;;;5094060;28;20243;-45
2023/07/26 01:01:05;;;;;;;2.80;1.10;;;15.60;99.90;;;;;;5093866;28;20173;-45
2023/07/26 01:03:31;;;;;;;2.87;1.40;;;15.50;99.90;;;;;;5094714;28;20456;-44
2023/07/26 01:06:07;;;;;;;4.00;1.40;;;15.50;99.90;;;;;;5094409;28;20625;-45
2023/07/26 01:09:00;;;;;;;5.13;1.83;;;15.50;99.90;;;;;;5096075;28;20182;-47
2023/07/26 01:12:01;;;;;;;4.23;1.10;;;15.40;99.90;;;;;;5095954;28;20294;-44
2023/07/26 01:14:41;;;;;;;3.50;1.30;;;15.40;99.90;;;;;;5095362;28;20168;-46
2023/07/26 01:17:07;;;;;;;3.10;1.43;;;15.50;99.90;;;;;;5095649;28;20197;-45
2023/07/26 01:19:33;;;;;;;1.27;1.10;;;15.40;99.90;;;;;;5095451;28;20179;-43
2023/07/26 01:21:59;;;;;;;3.83;1.77;;;15.40;99.90;;;;;;5112411;28;20240;-46
2023/07/26 01:24:25;;;;;;;5.20;1.60;;;15.40;99.90;;;;;;5094013;28;20175;-44
2023/07/26 01:26:51;;;;;;;2.30;1.67;;;15.30;99.90;;;;;;5092827;28;20177;-47
2023/07/26 01:29:16;;;;;;;2.63;1.27;;;15.30;99.90;;;;;;5092903;28;20291;-47
2023/07/26 01:31:42;;;;;;;3.73;1.40;;;15.20;99.90;;;;;;5112040;28;20418;-46
2023/07/26 01:34:08;;;;;;;3.93;1.40;;;15.20;99.90;;;;;;5097114;28;20256;-43
2023/07/26 01:36:35;;;;;;;1.53;1.00;;;15.10;99.90;;;;;;5096479;28;20553;-46
2023/07/26 01:39:02;;;;;;;3.43;1.37;;;15.10;99.90;;;;;;5116398;28;20633;-44
2023/07/26 01:41:29;;;;;;;3.47;1.37;;;15.10;99.90;;;;;;5098665;28;20344;-46
2023/07/26 01:43:55;;;;;;;6.27;1.87;;;15.10;99.90;;;;;;5099943;28;20224;-44
2023/07/26 01:46:20;;;;;;;4.83;1.50;;;15.10;99.90;;;;;;5099724;28;20206;-48
2023/07/26 01:48:46;;;;;;;4.40;1.33;;;15.10;99.90;;;;;;5098537;28;20322;-43
2023/07/26 01:51:11;;;;;;;3.90;1.13;;;15.10;99.90;;;;;;5098191;28;20293;-44
2023/07/26 01:53:37;;;;;;;1.90;1.40;;;15.10;99.90;;;;;;5097562;28;20163;-44
2023/07/26 01:56:03;;;;;;;4.17;1.77;;;15.10;99.90;;;;;;5098449;28;20460;-47
2023/07/26 01:58:28;;;;;;;2.23;1.63;;;15.10;99.90;;;;;;5115008;28;20175;-45
2023/07/26 02:00:54;;;;;;;2.50;1.33;;;15.00;99.90;;;;;;5098128;28;20167;-46
2023/07/26 02:03:20;;;;;;;1.87;1.20;;;15.00;99.90;;;;;;5098671;28;20187;-46
2023/07/26 02:05:47;;;;;;;7.40;1.70;;;15.00;99.90;;;;;;5098816;28;20221;-45
2023/07/26 02:08:13;;;;;;;5.30;1.47;;;15.00;99.90;;;;;;5099417;28;20171;-46
2023/07/26 02:10:39;;;;;;;5.20;1.90;;;15.00;99.90;;;;;;5116973;28;20570;-44
2023/07/26 02:13:05;;;;;;;4.63;1.43;;;15.10;99.90;;;;;;5098042;28;20221;-46
2023/07/26 02:15:31;;;;;;;5.37;1.60;;;15.00;99.90;;;;;;5099584;28;20199;-46
2023/07/26 02:17:57;;;;;;;2.80;1.43;;;15.00;99.90;;;;;;5100027;28;20453;-46
2023/07/26 02:20:23;;;;;;;3.70;1.70;;;15.00;99.90;;;;;;5099630;28;20168;-43
2023/07/26 02:22:48;;;;;;;3.23;1.20;;;14.90;99.90;;;;;;5117859;28;20164;-44
2023/07/26 02:25:14;;;;;;;4.60;1.57;;;14.90;99.90;;;;;;5099601;28;20242;-46
2023/07/26 02:27:40;;;;;;;4.67;1.47;;;14.90;99.90;;;;;;5099677;28;20187;-44
2023/07/26 02:30:06;;;;;;;4.60;1.43;;;14.90;99.90;;;;;;5117474;28;20548;-43
2023/07/26 02:32:32;;;;;;;2.50;1.30;;;14.90;99.90;;;;;;5099681;28;20210;-44
2023/07/26 02:34:57;;;;;;;2.97;1.40;;;14.90;99.90;;;;;;5099088;28;20496;-43
2023/07/26 02:37:23;;;;;;;4.57;1.63;;;14.90;99.90;;;;;;5099254;28;20167;-42
2023/07/26 02:39:50;;;;;;;3.00;1.30;;;14.90;99.90;;;;;;5117319;28;20171;-46
2023/07/26 02:42:16;;;;;;;4.80;1.70;;;14.90;99.90;;;;;;5097436;28;20172;-44
2023/07/26 02:44:42;;;;;;;4.93;1.83;;;14.90;99.90;;;;;;5096888;28;20168;-45
2023/07/26 02:47:08;;;;;;;4.00;1.67;;;14.80;99.90;;;;;;5097547;28;20171;-43
2023/07/26 02:49:33;;;;;;;2.17;1.40;;;14.80;99.90;;;;;;5097789;28;20183;-46
2023/07/26 02:51:58;;;;;;;4.10;1.50;;;14.80;99.90;;;;;;5098647;28;20314;-46
2023/07/26 02:54:24;;;;;;;6.57;2.33;;;14.90;99.90;;;;;;5098619;28;20174;-45
2023/07/26 02:56:49;;;;;;;3.10;1.20;;;14.90;99.90;;;;;;5116394;28;20179;-47
2023/07/26 02:59:15;;;;;;;4.37;1.50;;;14.90;99.90;;;;;;5115319;28;20662;-46
2023/07/26 03:01:41;;;;;;;3.17;1.33;;;14.80;99.90;;;;;;5097631;28;20608;-44
2023/07/26 03:04:06;;;;;;;3.53;1.87;;;14.80;99.90;;;;;;5116950;28;20586;-46
2023/07/26 03:06:32;;;;;;;5.50;1.50;;;14.70;99.90;;;;;;5096725;28;20595;-46
2023/07/26 03:08:57;;;;;;;2.97;1.50;;;14.70;99.90;;;;;;5097193;28;20175;-47
2023/07/26 03:11:23;;;;;;;3.73;1.90;;;14.70;99.90;;;;;;5096459;28;20203;-43
2023/07/26 03:13:48;;;;;;;2.77;1.33;;;14.70;99.90;;;;;;5113381;28;20174;-46
2023/07/26 03:16:17;;;;;;;3.83;1.70;;;14.70;99.90;;;;;;5094536;28;20164;-45
2023/07/26 03:18:43;;;;;;;5.47;1.30;;;14.70;99.90;;;;;;5095002;28;20171;-43
2023/07/26 03:21:09;;;;;;;2.93;1.90;;;14.70;99.90;;;;;;5094494;28;20178;-45
2023/07/26 03:23:34;;;;;;;5.03;1.70;;;14.60;99.90;;;;;;5113876;28;20542;-47
2023/07/26 03:26:01;;;;;;;4.13;1.40;;;14.60;99.90;;;;;;5097310;28;20171;-43
2023/07/26 03:28:27;;;;;;;4.40;1.90;;;14.60;99.90;;;;;;5096663;28;20167;-45
2023/07/26 03:30:52;;;;;;;2.93;1.40;;;14.60;99.90;;;;;;5114143;28;20227;-47
2023/07/26 03:33:18;;;;;;;1.83;1.20;;;14.60;99.90;;;;;;5096288;28;20582;-45
2023/07/26 03:35:43;;;;;;;4.87;1.57;;;14.70;99.90;;;;;;5095302;28;20531;-45
2023/07/26 03:38:09;;;;;;;6.37;1.50;;;14.70;99.90;;;;;;5092824;28;20172;-45
2023/07/26 03:40:35;;;;;;;4.33;1.87;;;14.70;99.90;;;;;;5112101;28;20362;-46
2023/07/26 03:43:00;;;;;;;4.07;1.70;;;14.70;99.90;;;;;;5094308;28;20563;-46
2023/07/26 03:45:28;;;;;;;4.70;1.70;;;14.70;99.90;;;;;;5094507;28;20175;-43
2023/07/26 03:51:16;;;;;;;3.17;1.50;;;14.60;99.90;;;;;;5112947;28;20213;-43
2023/07/26 03:53:41;;;;;;;7.10;1.70;;;14.50;99.90;;;;;;5093861;28;20163;-43
2023/07/26 03:56:07;;;;;;;4.40;1.70;;;14.50;99.90;;;;;;5094111;28;20442;-48
2023/07/26 03:58:32;;;;;;;4.40;1.50;;;14.60;99.90;;;;;;5094907;28;20168;-48
2023/07/26 04:00:58;;;;;;;3.97;1.90;;;14.60;99.90;;;;;;5095157;28;20176;-45
2023/07/26 04:03:24;;;;;;;5.90;1.67;;;14.60;99.90;;;;;;5096628;28;20492;-46
2023/07/26 04:05:50;;;;;;;3.27;1.50;;;14.50;99.90;;;;;;5096884;28;20175;-43
2023/07/26 04:08:16;;;;;;;2.83;1.70;;;14.60;99.90;;;;;;5097291;28;20206;-45
2023/07/26 04:10:42;;;;;;;5.63;2.10;;;14.60;99.90;;;;;;5115175;28;20210;-46
2023/07/26 04:13:07;;;;;;;2.80;1.70;;;14.60;99.90;;;;;;5096603;28;20171;-44
2023/07/26 04:15:33;;;;;;;3.10;2.07;;;14.60;99.90;;;;;;5096521;28;20174;-44
2023/07/26 04:17:58;;;;;;;5.53;2.00;;;14.50;99.90;;;;;;5095595;28;20171;-44
2023/07/26 04:20:24;;;;;;;3.47;1.77;;;14.50;99.90;;;;;;5095943;28;20168;-45
2023/07/26 04:22:49;;;;;;;3.23;1.87;;;14.50;99.90;;;;;;5111405;28;20465;-45
2023/07/26 04:25:15;;;;;;;5.30;2.30;;;14.50;99.90;;;;;;5111449;28;20258;-46
2023/07/26 04:27:41;;;;;;;6.80;2.30;;;14.50;99.90;;;;;;5093690;28;20186;-45
2023/07/26 04:30:07;;;;;;;1.90;1.67;;;14.60;99.90;;;;;;5085280;28;20240;-43
2023/07/26 04:32:32;;;;;;;5.53;1.97;;;14.50;99.90;;;;;;5071972;28;20261;-44
2023/07/26 04:34:58;;;;;;;3.10;1.83;;;14.50;99.90;;;;;;5073907;28;20183;-42
2023/07/26 04:37:24;;;;;;;3.03;1.77;;;14.50;99.90;;;;;;5075251;28;20166;-45
2023/07/26 04:39:49;;;;;;;3.33;1.40;;;14.50;99.90;;;;;;5076025;28;20562;-47
2023/07/26 04:42:15;;;;;;;5.17;2.07;;;14.60;99.90;;;;;;5074835;28;20175;-46
2023/07/26 04:44:40;;;;;;;3.83;1.60;;;14.60;99.90;;;;;;5073526;28;20278;-43
2023/07/26 04:47:06;;;;;;;3.03;1.47;;;14.50;99.90;;;;;;5073436;28;20203;-46
2023/07/26 04:49:31;;;;;;;2.93;1.50;;;14.50;99.90;;;;;;5074094;28;20470;-43
2023/07/26 04:51:57;;;;;;;4.37;1.60;;;14.50;99.90;;;;;;5089369;28;20284;-43
2023/07/26 04:54:22;;;;;;;3.20;1.73;;;14.40;99.90;;;;;;5071231;28;20229;-45
2023/07/26 04:56:48;;;;;;;6.93;2.10;;;14.50;99.90;;;;;;5087505;28;20165;-47
2023/07/26 04:59:15;;;;;;;7.57;1.73;;;14.50;99.90;;;;;;5071538;28;20449;-46
2023/07/26 05:01:40;;;;;;;3.17;1.63;;;14.60;99.90;;;;;;5069892;28;20176;-44
2023/07/26 05:04:06;;;;;;;3.93;1.63;;;14.60;99.90;;;;;;5068502;28;20175;-45
2023/07/26 05:06:31;;;;;;;5.83;1.47;;;14.60;99.90;;;;;;5071591;28;20164;-45
2023/07/26 05:08:57;;;;;;;4.87;1.67;;;14.70;99.90;;;;;;5076214;28;20172;-48
2023/07/26 05:11:23;;;;;;;4.03;1.33;;;14.70;99.90;;;;;;5074752;28;20192;-43
2023/07/26 05:13:49;;;;;;;3.20;1.40;;;14.70;99.90;;;;;;5074316;28;20376;-45
2023/07/26 05:16:14;;;;;;;2.77;1.57;;;14.80;99.90;;;;;;5074596;28;20176;-46
2023/07/26 05:18:40;;;;;;;3.73;1.80;;;14.80;99.90;;;;;;5075137;28;20186;-46
2023/07/26 05:21:06;;;;;;;3.80;1.80;;;14.80;99.90;;;;;;5075040;28;20356;-43
2023/07/26 05:23:31;;;;;;;2.70;1.60;;;14.80;99.90;;;;;;5074974;28;20183;-47
2023/07/26 05:25:57;;;;;;;2.80;1.60;;;14.80;99.90;;;;;;5075451;28;20203;-48
2023/07/26 05:28:22;;;;;;;4.20;1.77;;;14.80;99.90;;;;;;5075554;28;20467;-45
2023/07/26 05:30:48;;;;;;;5.20;1.80;;;14.80;99.90;;;;;;5106860;28;20251;-47
2023/07/26 05:33:14;;;;;;;8.37;1.90;;;14.90;99.90;;;;;;5094118;28;20193;-47
2023/07/26 05:35:40;;;;;;;4.37;1.53;;;14.90;99.90;;;;;;5110824;28;20182;-44
2023/07/26 05:38:06;;;;;;;5.73;1.80;;;14.90;99.90;;;;;;5091136;28;20404;-45
2023/07/26 05:40:31;;;;;;;4.60;2.03;;;14.90;99.90;;;;;;5091580;28;20174;-45
2023/07/26 05:42:57;;;;;;;2.63;1.40;;;14.90;99.90;;;;;;5109414;28;20535;-48
2023/07/26 05:45:23;;;;;;;4.70;1.70;;;14.90;99.90;;;;;;5091756;28;20202;-46
2023/07/26 05:47:48;;;;;;;3.57;1.70;;;14.90;99.90;;;;;;5092923;28;20199;-44
2023/07/26 05:50:14;;;;;;;6.20;1.97;;;15.00;99.90;;;;;;5113138;28;20225;-45
2023/07/26 05:52:40;;;;;;;3.47;1.70;;;15.00;99.90;;;;;;5113293;28;20196;-45
2023/07/26 05:55:07;;;;;;;2.77;1.43;;;15.00;99.90;;;;;;5099512;28;20163;-50
2023/07/26 05:57:32;;;;;;;4.83;2.20;;;15.00;99.90;;;;;;5118573;28;20164;-48
2023/07/26 05:59:58;;;;;;;5.27;1.83;;;15.00;99.90;;;;;;5100183;28;20216;-46
2023/07/26 06:02:23;;;;;;;5.57;2.63;;;15.00;99.90;;;;;;5098525;28;20175;-44
2023/07/26 06:04:49;;;;;;;4.53;1.47;;;15.00;99.90;;;;;;5098713;28;20203;-43
2023/07/26 06:07:16;;;;;;;4.87;1.53;;;15.00;99.90;;;;;;5096880;28;20202;-46
2023/07/26 06:09:42;;;;;;;2.90;1.73;;;15.10;99.90;;;;;;5098255;28;20175;-43
2023/07/26 06:12:09;;;;;;;4.23;1.70;;;15.10;99.90;;;;;;5116246;28;20256;-44
2023/07/26 06:14:34;;;;;;;5.73;2.07;;;15.10;99.90;;;;;;5116627;28;20254;-44
2023/07/26 06:17:00;;;;;;;5.17;2.33;;;15.10;99.90;;;;;;5097892;28;20262;-44
2023/07/26 06:19:26;;;;;;;3.83;1.50;;;15.10;99.90;;;;;;5098024;28;20216;-42
2023/07/26 06:21:58;;;;;;;2.17;1.80;;;15.10;99.90;;;;;;5098684;28;20167;-45
2023/07/26 06:24:24;;;;;;;2.80;1.87;;;15.10;99.90;;;;;;5099356;28;20235;-46
2023/07/26 06:26:51;;;;;;;6.67;1.90;;;15.20;99.90;;;;;;5098066;28;20171;-46
2023/07/26 06:29:18;;;;;;;3.43;1.33;;;15.20;99.90;;;;;;5097599;28;20179;-45
2023/07/26 06:31:43;;;;;;;5.77;1.90;;;15.30;99.90;;;;;;5098687;28;20213;-44
2023/07/26 06:34:09;;;;;;;4.67;1.80;;;15.30;99.90;;;;;;5116564;28;20164;-44
2023/07/26 06:36:35;;;;;;;6.60;1.97;;;15.40;99.90;;;;;;5098626;28;20174;-48
2023/07/26 06:39:01;;;;;;;5.70;2.00;;;15.50;99.90;;;;;;5098746;28;20206;-44
2023/07/26 06:41:27;;;;;;;8.17;1.93;;;15.50;99.90;;;;;;5116519;28;20171;-43
2023/07/26 06:43:53;;;;;;;6.87;2.10;;;15.50;99.90;;;;;;5096708;28;20198;-43
2023/07/26 06:46:18;;;;;;;2.50;1.60;;;15.60;99.90;;;;;;5096685;28;20171;-45
2023/07/26 06:48:44;;;;;;;4.03;1.40;;;15.60;99.90;;;;;;5096471;28;20181;-44
2023/07/26 06:51:10;;;;;;;4.80;1.70;;;15.60;99.90;;;;;;5096068;28;20241;-45
2023/07/26 06:53:35;;;;;;;5.03;2.27;;;15.60;99.90;;;;;;5096624;28;20160;-43
2023/07/26 06:56:01;;;;;;;4.67;1.97;;;15.60;99.90;;;;;;5096426;28;20691;-45
2023/07/26 06:58:27;;;;;;;4.47;1.77;;;15.60;99.90;;;;;;5114174;28;20175;-45
2023/07/26 07:00:54;;;;;;;1.90;1.40;;;15.60;99.90;;;;;;5096720;28;20202;-47
2023/07/26 07:03:20;;;;;;;4.37;1.60;;;15.70;99.90;;;;;;5097339;28;20588;-44
2023/07/26 07:05:45;;;;;;;4.07;1.97;;;15.70;99.90;;;;;;5115305;28;20197;-44
2023/07/26 07:08:11;;;;;;;5.60;1.77;;;15.70;99.90;;;;;;5097381;28;20167;-45
2023/07/26 07:10:37;;;;;;;4.70;1.87;;;15.80;99.90;;;;;;5096083;28;20175;-44
2023/07/26 07:13:02;;;;;;;2.70;1.73;;;15.80;99.90;;;;;;5096328;28;20228;-47
2023/07/26 07:15:28;;;;;;;4.97;2.00;;;15.90;99.90;;;;;;5096269;28;20183;-43
2023/07/26 07:17:53;;;;;;;2.53;1.57;;;15.90;99.90;;;;;;5095587;28;20682;-45
2023/07/26 07:20:19;;;;;;;3.13;1.80;;;16.00;99.90;;;;;;5095988;28;20163;-45
2023/07/26 07:22:45;;;;;;;3.37;1.43;;;16.00;99.90;;;;;;5096314;28;20263;-45
2023/07/26 07:25:11;;;;;;;4.73;1.50;;;16.00;99.90;;;;;;5113547;28;20258;-43
2023/07/26 07:27:36;;;;;;;3.90;1.57;;;15.90;99.90;;;;;;5095386;28;20233;-43
2023/07/26 07:30:03;;;;;;;3.07;1.50;;;15.80;99.90;;;;;;5089123;28;20223;-43
2023/07/26 07:32:29;;;;;;;4.77;1.73;;;15.80;99.90;;;;;;5091006;28;20534;-47
2023/07/26 07:34:54;;;;;;;6.07;2.37;;;15.80;99.90;;;;;;5090792;28;20247;-46
2023/07/26 07:37:20;;;;;;;5.33;1.47;;;15.80;99.90;;;;;;5090677;28;20168;-43
2023/07/26 07:39:46;;;;;;;3.00;1.67;;;15.90;99.90;;;;;;5090734;28;20597;-44
2023/07/26 07:42:12;;;;;;;3.23;1.70;;;15.90;99.90;;;;;;5092015;28;20171;-45
2023/07/26 07:44:38;;;;;;;3.30;1.70;;;15.90;99.90;;;;;;5092605;28;20175;-45
2023/07/26 07:47:03;;;;;;;5.10;2.10;;;16.00;99.90;;;;;;5091058;28;20176;-45
2023/07/26 07:49:29;;;;;;;2.87;1.40;;;16.00;99.90;;;;;;5091829;28;20175;-45
2023/07/26 07:51:57;;;;;;;4.23;1.90;;;16.00;99.90;;;;;;5092708;28;20220;-47
2023/07/26 07:54:23;;;;;;;5.87;1.80;;;16.00;99.90;;;;;;5092238;28;20167;-47
2023/07/26 07:56:48;;;;;;;4.63;2.10;;;16.10;99.90;;;;;;5092974;28;20176;-43
2023/07/26 07:59:14;;;;;;;4.70;1.63;;;16.10;99.90;;;;;;5090598;28;20180;-44
2023/07/26 08:01:40;;;;;;;5.73;1.70;;;16.10;99.90;;;;;;5092943;28;20317;-44
2023/07/26 08:04:06;;;;;;;2.67;1.43;;;16.20;99.90;;;;;;5090807;28;20172;-49
2023/07/26 08:06:32;;;;;;;4.13;1.57;;;16.20;99.90;;;;;;5091528;28;20176;-43
2023/07/26 08:08:58;;;;;;;4.60;1.37;;;16.20;99.90;;;;;;5091434;28;20172;-43
2023/07/26 08:11:24;;;;;;;8.17;2.57;;;16.30;99.90;;;;;;5091454;28;20218;-43
2023/07/26 08:13:49;;;;;;;6.27;1.93;;;16.30;99.90;;;;;;5092688;28;20483;-45
2023/07/26 08:16:15;;;;;;;4.97;1.80;;;16.40;99.90;;;;;;5093158;28;20421;-43
2023/07/26 08:18:41;;;;;;;3.23;1.50;;;16.50;99.90;;;;;;5093388;28;20164;-44
2023/07/26 08:21:07;;;;;;;3.67;1.80;;;16.60;99.90;;;;;;5092155;28;20266;-45
2023/07/26 08:23:33;;;;;;;7.70;1.57;;;16.60;99.90;;;;;;5093018;28;20259;-46
2023/07/26 08:26:03;;;;;;;11.33;1.70;;;16.70;99.90;;;;;;5091348;28;20501;-43
2023/07/26 08:28:29;;;;;;;5.63;1.70;;;16.80;99.90;;;;;;5092042;28;20172;-45
2023/07/26 08:30:54;;;;;;;5.73;1.67;;;16.90;99.90;;;;;;5094423;28;20499;-47
2023/07/26 08:33:20;;;;;;;3.80;1.90;;;16.90;99.90;;;;;;5094738;28;20324;-43
2023/07/26 08:35:47;;;;;;;5.47;2.00;;;16.90;99.90;;;;;;5093183;28;20164;-45
2023/07/26 08:38:12;;;;;;;3.63;1.30;;;17.00;99.90;;;;;;5110906;28;20167;-45
2023/07/26 08:40:47;;;;;;;4.53;1.70;;;17.00;99.90;;;;;;5109691;28;20493;-44
2023/07/26 08:43:13;;;;;;;3.13;1.50;;;17.00;99.90;;;;;;5109055;28;20158;-44
2023/07/26 08:45:41;;;;;;;3.83;1.30;;;17.00;99.90;;;;;;5091015;28;20746;-47
2023/07/26 08:48:08;;;;;;;3.00;1.40;;;17.00;99.90;;;;;;5090765;28;20597;-43
2023/07/26 08:50:34;;;;;;;3.33;1.43;;;17.00;99.90;;;;;;5090442;28;20313;-44
2023/07/26 08:53:00;;;;;;;3.50;1.50;;;16.90;99.90;;;;;;5107774;28;20254;-45
2023/07/26 08:55:26;;;;;;;3.00;1.10;;;16.80;99.90;;;;;;5091158;28;20779;-45
2023/07/26 08:57:52;;;;;;;4.03;1.67;;;16.70;99.90;;;;;;5107598;28;20156;-48
2023/07/26 09:00:18;;;;;;;2.87;1.30;;;16.70;99.90;;;;;;5090928;28;20168;-45
2023/07/26 09:02:46;;;;;;;2.27;1.33;;;16.60;99.90;;;;;;5089929;28;20195;-43
2023/07/26 09:05:12;;;;;;;2.43;1.03;;;16.70;99.90;;;;;;5090752;28;20601;-43
2023/07/26 09:07:38;;;;;;;1.83;1.07;;;16.70;99.90;;;;;;5091191;28;20167;-43
2023/07/26 09:10:04;;;;;;;1.33;1.00;;;16.80;99.90;;;;;;5091479;28;20227;-46
2023/07/26 09:12:30;;;;;;;3.73;1.00;;;16.80;99.90;;;;;;5091517;28;20203;-44
2023/07/26 09:15:04;;;;;;;2.00;1.10;;;16.90;99.90;;;;;;5108718;28;20218;-44
2023/07/26 09:17:38;;;;;;;3.10;1.10;;;17.00;99.90;;;;;;5109267;28;20215;-43
2023/07/26 09:20:06;;;;;;;1.87;1.40;;;17.20;99.90;;;;;;5091598;28;20160;-47
2023/07/26 09:22:31;;;;;;;2.63;0.90;;;17.30;99.90;;;;;;5092003;28;20171;-43
2023/07/26 09:24:57;;;;;;;2.43;1.00;;;17.40;99.90;;;;;;5092774;28;20174;-43
2023/07/26 09:27:23;;;;;;;1.33;0.70;;;17.40;99.90;;;;;;5093568;28;20194;-45
2023/07/26 09:29:56;;;;;;;1.17;0.97;;;17.40;99.90;;;;;;5092698;28;20308;-45
2023/07/26 09:32:29;;;;;;;3.60;0.90;;;17.40;99.90;;;;;;5094010;28;20268;-43
2023/07/26 09:34:59;;;;;;;2.53;1.33;;;17.40;99.90;;;;;;5094868;28;20407;-45
2023/07/26 09:37:25;;;;;;;1.03;0.80;;;17.40;99.90;;;;;;5112668;28;20624;-43
2023/07/26 09:39:51;;;;;;;1.83;0.90;;;17.40;99.90;;;;;;5094185;28;20167;-46
2023/07/26 09:42:17;;;;;;;1.83;0.77;;;17.50;99.90;;;;;;5092986;28;20223;-46
2023/07/26 09:44:46;;;;;;;1.70;0.87;;;17.50;99.90;;;;;;5093520;28;20473;-44
2023/07/26 09:47:12;;;;;;;2.60;0.90;;;17.50;99.90;;;;;;5091687;28;20768;-45
2023/07/26 09:49:50;;;;;;;1.90;1.10;;;17.60;99.90;;;;;;5091857;28;20203;-48
2023/07/26 09:52:20;;;;;;;1.03;0.93;;;17.60;99.90;;;;;;5093092;28;20213;-46
2023/07/26 09:54:48;;;;;;;1.47;0.90;;;17.70;99.90;;;;;;5096706;28;20193;-44
2023/07/26 09:57:15;;;;;;;1.63;1.23;;;17.80;99.90;;;;;;5096964;28;20454;-43
2023/07/26 09:59:41;;;;;;;1.13;0.70;;;17.70;99.90;;;;;;5096502;28;20573;-45
2023/07/26 10:02:11;;;;;;;1.63;0.97;;;17.60;99.90;;;;;;5095284;28;20184;-48
2023/07/26 10:04:53;;;;;;;3.03;0.60;;;17.60;99.90;;;;;;5098059;28;20163;-48
2023/07/26 10:07:20;;;;;;;0.73;0.53;;;17.70;99.90;;;;;;5114935;28;20163;-44
2023/07/26 10:09:47;;;;;;;2.10;0.80;;;17.80;99.90;;;;;;5098134;28;20232;-47
2023/07/26 10:12:14;;;;;;;0.97;0.87;;;17.80;99.90;;;;;;5098708;28;20221;-44
2023/07/26 10:14:41;;;;;;;0.83;0.70;;;17.90;99.90;;;;;;5099609;28;20199;-44
2023/07/26 10:17:07;;;;;;;2.07;0.70;;;18.00;99.90;;;;;;5098545;28;20189;-45
2023/07/26 10:19:36;;;;;;;0.70;0.70;;;18.00;99.90;;;;;;5097161;28;20272;-43
2023/07/26 10:22:03;;;;;;;0.87;0.63;;;18.10;99.90;;;;;;5097391;28;20167;-46
2023/07/26 10:24:31;;;;;;;0.93;0.80;;;18.10;99.90;;;;;;5098569;28;20762;-47
2023/07/26 10:26:57;;;;;;;0.80;0.80;;;18.20;99.90;;;;;;5097886;28;20525;-44
2023/07/26 10:29:23;;;;;;;1.17;0.83;;;18.20;99.90;;;;;;5097277;28;20488;-44
2023/07/26 10:32:03;;;;;;;1.20;0.80;;;18.20;99.90;;;;;;5114530;28;20587;-46
2023/07/26 10:34:29;;;;;;;0.97;0.93;;;18.20;99.90;;;;;;5113157;28;20159;-44
2023/07/26 10:36:57;;;;;;;2.60;0.77;;;18.30;99.90;;;;;;5095397;28;20176;-44
2023/07/26 10:39:33;;;;;;;0.80;0.80;;;18.30;99.90;;;;;;5095468;28;20167;-44
2023/07/26 10:41:59;;;;;;;1.13;0.83;;;18.20;99.90;;;;;;5094517;28;20167;-44
2023/07/26 10:44:25;;;;;;;0.53;0.53;;;18.20;99.90;;;;;;5094355;28;20168;-44
2023/07/26 10:46:59;;;;;;;0.87;0.77;;;18.30;99.90;;;;;;5112415;28;20699;-43
2023/07/26 10:49:30;;;;;;;1.00;0.80;;;18.30;99.90;;;;;;5114832;28;20436;-47
2023/07/26 10:52:02;;;;;;;1.73;0.93;;;18.40;99.90;;;;;;5095609;28;20213;-46
2023/07/26 10:54:48;;;;;;;2.77;0.93;;;18.40;99.90;;;;;;5094786;28;20163;-43
2023/07/26 10:57:24;;;;;;;1.47;1.00;;;18.40;99.90;;;;;;5095500;28;20171;-43
2023/07/26 11:00:06;;;;;;;2.10;1.10;;;18.40;99.90;;;;;;5095735;28;20181;-43
2023/07/26 11:02:43;;;;;;;1.93;0.93;;;18.40;99.90;;;;;;5112732;28;20172;-44
2023/07/26 11:05:21;;;;;;;0.77;0.77;;;18.50;99.90;;;;;;5095451;28;20270;-43
2023/07/26 11:08:00;;;;;;;1.30;1.00;;;18.40;99.90;;;;;;5114583;28;20171;-47
2023/07/26 11:10:36;;;;;;;1.47;1.00;;;18.50;99.90;;;;;;5116459;28;20271;-43
2023/07/26 11:13:15;;;;;;;0.80;0.80;;;18.50;99.90;;;;;;5098452;28;20189;-44
2023/07/26 11:15:50;;;;;;;3.00;0.80;;;18.60;99.90;;;;;;5098686;28;20221;-45
2023/07/26 11:18:19;;;;;;;2.00;1.37;;;18.60;99.90;;;;;;5097888;28;20167;-46
2023/07/26 11:20:50;;;;;;;1.40;1.10;;;18.70;99.90;;;;;;5098460;28;20175;-43
2023/07/26 11:23:21;;;;;;;2.17;0.80;;;18.70;99.90;;;;;;5097695;28;20167;-45
2023/07/26 11:25:47;;;;;;;2.67;1.17;;;18.80;99.90;;;;;;5096340;28;20171;-43
2023/07/26 11:28:14;;;;;;;1.40;1.00;;;18.80;99.90;;;;;;5113875;28;20163;-43
2023/07/26 11:30:45;;;;;;;1.50;1.00;;;18.90;99.90;;;;;;5092379;28;20215;-44
2023/07/26 11:33:10;;;;;;;1.37;1.17;;;19.00;99.90;;;;;;5093692;28;20172;-44
2023/07/26 11:35:41;;;;;;;1.53;1.10;;;19.00;99.90;;;;;;5093325;28;20164;-45
2023/07/26 11:38:07;;;;;;;3.63;1.50;;;19.00;99.90;;;;;;5091131;28;20263;-46
2023/07/26 11:40:43;;;;;;;3.33;1.30;;;19.00;99.90;;;;;;5090601;28;20614;-44
2023/07/26 11:43:09;;;;;;;1.20;1.10;;;19.10;99.90;;;;;;5090327;28;20555;-44
2023/07/26 11:45:41;;;;;;;1.63;1.00;;;19.20;99.90;;;;;;5088761;28;20582;-46
2023/07/26 11:48:09;;;;;;;4.63;1.87;;;19.30;99.90;;;;;;5089714;28;20169;-43
2023/07/26 11:50:36;;;;;;;1.87;1.67;;;19.40;99.90;;;;;;5087489;28;20200;-45
2023/07/26 11:53:06;;;;;;;4.00;1.20;;;19.50;99.90;;;;;;5087950;28;20237;-43
2023/07/26 11:55:32;;;;;;;1.20;1.10;;;19.50;99.90;;;;;;5090257;28;20208;-45
2023/07/26 11:58:06;;;;;;;1.37;1.03;;;19.50;99.90;;;;;;5090266;28;20266;-44
2023/07/26 12:00:33;;;;;;;3.73;1.33;;;19.60;99.90;;;;;;5090952;28;20730;-44
2023/07/26 12:03:04;;;;;;;2.10;1.27;;;19.40;99.90;;;;;;5090629;28;20222;-48
2023/07/26 12:05:29;;;;;;;5.70;1.30;;;19.30;99.90;;;;;;5090997;28;20183;-46
2023/07/26 12:08:00;;;;;;;1.97;1.30;;;19.00;99.90;;;;;;5089858;28;20175;-44
2023/07/26 12:10:41;;;;;;;1.23;1.00;;;18.90;99.90;;;;;;5090241;28;20182;-43
2023/07/26 12:13:26;;;;;;;2.30;1.27;;;18.70;99.90;;;;;;5090071;28;20643;-46
2023/07/26 12:15:59;;;;;;;2.60;1.10;;;18.50;99.90;;;;;;5088579;28;20548;-43
2023/07/26 12:18:26;;;;;;;2.47;1.10;;;18.40;99.90;;;;;;5090150;28;20329;-44
2023/07/26 12:21:07;;;;;;;1.77;0.90;;;18.30;99.90;;;;;;5090558;28;20180;-42
2023/07/26 12:23:57;;;;;;;4.23;1.00;;;18.20;99.90;;;;;;5090677;28;20160;-46
2023/07/26 12:26:31;;;;;;;2.10;1.40;;;18.30;99.90;;;;;;5089358;28;20232;-44
2023/07/26 12:28:59;;;;;;;3.27;1.07;;;18.60;99.90;;;;;;5089182;28;20171;-44
2023/07/26 12:31:27;;;;;;;2.30;1.33;;;19.00;99.90;;;;;;5109101;28;20226;-45
2023/07/26 12:34:03;;;;;;;2.00;1.27;;;19.30;99.90;;;;;;5111706;28;20182;-43
2023/07/26 12:36:31;;;;;;;1.67;1.10;;;19.30;99.90;;;;;;5110862;28;20163;-44
2023/07/26 12:38:57;;;;;;;1.30;1.20;;;19.40;99.90;;;;;;5092921;28;20228;-44
2023/07/26 12:41:23;;;;;;;1.10;0.87;;;19.40;99.90;;;;;;5109322;28;20163;-43
2023/07/26 12:43:54;;;;;;;3.50;1.23;;;19.40;99.90;;;;;;5091529;28;20178;-45
2023/07/26 12:46:20;;;;;;;2.40;1.10;;;19.50;99.90;;;;;;5110135;28;20596;-44
2023/07/26 12:48:46;;;;;;;1.07;0.97;;;19.30;99.90;;;;;;5092382;28;20559;-43
2023/07/26 12:51:12;;;;;;;5.07;1.20;;;19.20;99.90;;;;;;5092688;28;20217;-43